createdAt,value
2023-03-01T00:01:39.875Z,9.13
2023-03-01T00:04:06.728Z,9.18
2023-03-01T00:06:33.948Z,9.27
2023-03-01T00:09:00.784Z,8.95
2023-03-01T00:11:30.697Z,9.90
2023-03-01T00:14:01.886Z,10.00
2023-03-01T00:16:42.132Z,9.60
2023-03-01T00:19:14.818Z,8.75
2023-03-01T00:21:42.012Z,8.73
2023-03-01T00:24:09.888Z,9.32
2023-03-01T00:26:36.736Z,8.73
2023-03-01T00:29:04.215Z,9.05
2023-03-01T00:31:33.382Z,8.77
2023-03-01T00:34:04.624Z,8.63
2023-03-01T00:36:36.578Z,9.38
2023-03-01T00:39:06.620Z,7.88
2023-03-01T00:41:35.523Z,8.63
2023-03-01T00:44:02.748Z,8.05
2023-03-01T00:46:31.600Z,8.18
2023-03-01T00:48:58.803Z,8.40
2023-03-01T00:51:28.583Z,8.45
2023-03-01T00:53:58.025Z,8.30
2023-03-01T00:56:25.316Z,8.93
2023-03-01T00:58:52.118Z,8.02
2023-03-01T01:01:31.842Z,7.75
2023-03-01T01:04:12.384Z,7.93
2023-03-01T01:06:47.624Z,8.18
2023-03-01T01:09:18.502Z,7.80
2023-03-01T01:11:51.696Z,7.35
2023-03-01T01:14:19.745Z,8.98
2023-03-01T01:16:46.808Z,8.40
2023-03-01T01:19:14.800Z,8.57
2023-03-01T01:21:44.102Z,8.35
2023-03-01T01:24:11.359Z,8.25
2023-03-01T01:26:38.545Z,8.32
2023-03-01T01:29:06.542Z,8.15
2023-03-01T01:31:35.309Z,7.53
2023-03-01T01:34:05.400Z,8.13
2023-03-01T01:36:33.397Z,8.00
2023-03-01T01:39:00.840Z,8.05
2023-03-01T01:41:30.236Z,8.27
2023-03-01T01:44:25.899Z,8.30
2023-03-01T01:47:09.065Z,7.97
2023-03-01T01:49:45.136Z,8.40
2023-03-01T01:52:28.326Z,8.45
2023-03-01T01:55:07.700Z,7.95
2023-03-01T01:57:42.815Z,8.35
2023-03-01T02:00:20.163Z,8.55
2023-03-01T02:02:52.880Z,8.07
2023-03-01T02:05:34.187Z,8.40
2023-03-01T02:08:01.786Z,8.23
2023-03-01T02:10:31.098Z,8.07
2023-03-01T02:12:58.929Z,7.85
2023-03-01T02:15:27.543Z,7.70
2023-03-01T02:17:55.740Z,7.28
2023-03-01T02:20:35.429Z,7.93
2023-03-01T02:23:02.291Z,7.97
2023-03-01T02:25:59.200Z,8.13
2023-03-01T02:28:27.538Z,7.13
2023-03-01T02:31:14.833Z,8.35
2023-03-01T02:33:43.210Z,7.10
2023-03-01T02:36:19.626Z,7.60
2023-03-01T02:38:48.805Z,7.30
2023-03-01T02:41:20.078Z,6.82
2023-03-01T02:43:47.325Z,7.30
2023-03-01T02:46:22.287Z,7.15
2023-03-01T02:48:55.765Z,7.50
2023-03-01T02:51:57.356Z,7.40
2023-03-01T02:54:34.615Z,7.32
2023-03-01T02:57:02.462Z,7.43
2023-03-01T02:59:40.119Z,8.10
2023-03-01T03:02:09.019Z,8.10
2023-03-01T03:04:35.846Z,7.78
2023-03-01T03:07:02.632Z,8.40
2023-03-01T03:09:29.425Z,8.10
2023-03-01T03:11:56.143Z,7.90
2023-03-01T03:14:22.855Z,8.20
2023-03-01T03:16:51.266Z,8.05
2023-03-01T03:19:20.191Z,8.23
2023-03-01T03:21:47.662Z,8.52
2023-03-01T03:24:14.833Z,8.57
2023-03-01T03:26:41.544Z,7.85
2023-03-01T03:29:08.475Z,8.30
2023-03-01T03:31:35.385Z,9.02
2023-03-01T03:34:02.179Z,8.20
2023-03-01T03:36:29.000Z,8.70
2023-03-01T03:38:55.864Z,9.68
2023-03-01T03:41:22.747Z,9.20
2023-03-01T03:43:49.933Z,10.48
2023-03-01T03:46:17.977Z,9.27
2023-03-01T03:48:46.571Z,8.63
2023-03-01T03:51:16.603Z,9.30
2023-03-01T03:53:44.888Z,10.05
2023-03-01T03:56:13.214Z,9.60
2023-03-01T03:58:40.034Z,9.50
2023-03-01T04:01:07.456Z,8.98
2023-03-01T04:03:35.933Z,9.10
2023-03-01T04:06:04.962Z,9.65
2023-03-01T04:08:31.985Z,9.88
2023-03-01T04:11:21.698Z,9.57
2023-03-01T04:13:49.256Z,10.30
2023-03-01T04:16:16.150Z,9.75
2023-03-01T04:18:42.921Z,9.63
2023-03-01T04:21:09.699Z,10.27
2023-03-01T04:23:36.943Z,10.00
2023-03-01T04:26:04.732Z,10.27
2023-03-01T04:28:36.798Z,11.30
2023-03-01T04:31:14.604Z,10.75
2023-03-01T04:33:45.995Z,11.98
2023-03-01T04:36:15.601Z,11.45
2023-03-01T04:38:42.904Z,11.57
2023-03-01T04:41:12.110Z,12.00
2023-03-01T04:43:39.173Z,12.35
2023-03-01T04:46:10.309Z,12.38
2023-03-01T04:48:39.592Z,12.75
2023-03-01T04:51:08.325Z,15.40
2023-03-01T04:53:39.362Z,16.00
2023-03-01T04:56:07.157Z,16.90
2023-03-01T04:58:34.073Z,15.82
2023-03-01T05:01:00.873Z,14.63
2023-03-01T05:03:28.037Z,16.13
2023-03-01T05:05:54.995Z,18.77
2023-03-01T05:08:21.809Z,17.77
2023-03-01T05:10:54.015Z,18.85
2023-03-01T05:13:22.176Z,17.75
2023-03-01T05:15:55.495Z,16.50
2023-03-01T05:18:27.022Z,16.58
2023-03-01T05:20:57.157Z,16.20
2023-03-01T05:23:24.180Z,15.32
2023-03-01T05:25:53.224Z,13.77
2023-03-01T05:28:21.402Z,14.20
2023-03-01T05:30:48.512Z,12.68
2023-03-01T05:33:15.349Z,13.43
2023-03-01T05:35:46.094Z,12.45
2023-03-01T05:38:14.311Z,12.55
2023-03-01T05:40:44.632Z,12.70
2023-03-01T05:43:13.120Z,11.52
2023-03-01T05:45:41.555Z,12.20
2023-03-01T05:48:11.158Z,11.60
2023-03-01T05:50:42.340Z,11.32
2023-03-01T05:53:14.797Z,12.20
2023-03-01T05:55:43.513Z,10.77
2023-03-01T05:58:18.184Z,11.13
2023-03-01T06:00:47.687Z,11.68
2023-03-01T06:03:17.719Z,11.75
2023-03-01T06:05:45.545Z,11.35
2023-03-01T06:08:13.588Z,11.02
2023-03-01T06:10:41.646Z,11.77
2023-03-01T06:13:08.419Z,10.98
2023-03-01T06:15:35.217Z,11.73
2023-03-01T06:18:01.960Z,10.80
2023-03-01T06:20:33.063Z,11.27
2023-03-01T06:23:00.973Z,11.40
2023-03-01T06:25:28.608Z,12.82
2023-03-01T06:27:56.657Z,12.63
2023-03-01T06:30:26.133Z,11.32
2023-03-01T06:32:53.871Z,12.82
2023-03-01T06:35:21.252Z,12.07
2023-03-01T06:37:49.438Z,11.57
2023-03-01T06:40:17.296Z,11.88
2023-03-01T06:42:50.148Z,12.68
2023-03-01T06:45:19.663Z,12.60
2023-03-01T06:47:46.982Z,13.48
2023-03-01T06:50:15.340Z,13.60
2023-03-01T06:52:42.364Z,13.70
2023-03-01T06:55:09.447Z,13.73
2023-03-01T06:57:36.222Z,13.57
2023-03-01T07:00:08.092Z,14.48
2023-03-01T07:02:34.892Z,15.23
2023-03-01T07:05:01.731Z,14.30
2023-03-01T07:07:28.467Z,13.38
2023-03-01T07:09:55.306Z,12.73
2023-03-01T07:12:22.088Z,14.15
2023-03-01T07:14:48.828Z,14.15
2023-03-01T07:17:15.538Z,13.63
2023-03-01T07:19:42.283Z,14.75
2023-03-01T07:22:10.245Z,13.85
2023-03-01T07:24:37.104Z,13.63
2023-03-01T07:27:04.128Z,13.30
2023-03-01T07:29:31.209Z,13.15
2023-03-01T07:31:58.083Z,13.13
2023-03-01T07:34:25.114Z,13.52
2023-03-01T07:36:51.891Z,13.73
2023-03-01T07:39:19.688Z,13.57
2023-03-01T07:41:46.852Z,13.13
2023-03-01T07:44:13.572Z,12.65
2023-03-01T07:46:40.299Z,12.93
2023-03-01T07:49:09.138Z,12.82
2023-03-01T07:51:35.857Z,11.40
2023-03-01T07:54:03.120Z,11.25
2023-03-01T07:56:30.283Z,11.00
2023-03-01T07:58:57.658Z,9.70
2023-03-01T08:01:24.738Z,9.30
2023-03-01T08:03:51.485Z,9.05
2023-03-01T08:06:19.458Z,9.35
2023-03-01T08:08:46.736Z,8.38
2023-03-01T08:11:15.893Z,9.75
2023-03-01T08:13:44.150Z,8.88
2023-03-01T08:16:16.434Z,8.05
2023-03-01T08:18:44.457Z,8.43
2023-03-01T08:21:18.068Z,8.73
2023-03-01T08:23:45.246Z,7.85
2023-03-01T08:26:17.087Z,8.48
2023-03-01T08:28:44.357Z,7.95
2023-03-01T08:31:34.205Z,8.48
2023-03-01T08:34:05.186Z,8.10
2023-03-01T08:36:38.884Z,8.13
2023-03-01T08:39:07.325Z,7.40
2023-03-01T08:41:34.294Z,7.78
2023-03-01T08:44:01.213Z,7.82
2023-03-01T08:46:31.238Z,7.35
2023-03-01T08:48:58.502Z,7.47
2023-03-01T08:51:26.973Z,7.82
2023-03-01T08:53:54.422Z,7.88
2023-03-01T08:56:21.387Z,7.82
2023-03-01T08:58:50.087Z,8.40
2023-03-01T09:01:19.950Z,7.07
2023-03-01T09:03:47.841Z,8.27
2023-03-01T09:06:15.551Z,7.32
2023-03-01T09:08:46.649Z,7.47
2023-03-01T09:11:17.715Z,7.45
2023-03-01T09:13:46.414Z,6.82
2023-03-01T09:16:19.046Z,7.43
2023-03-01T09:18:51.095Z,7.15
2023-03-01T09:21:25.032Z,6.10
2023-03-01T09:23:59.213Z,5.38
2023-03-01T09:26:26.316Z,6.05
2023-03-01T09:28:57.036Z,5.50
2023-03-01T09:31:25.918Z,5.50
2023-03-01T09:33:55.231Z,5.30
2023-03-01T09:36:26.511Z,5.65
2023-03-01T09:38:54.216Z,5.47
2023-03-01T09:41:50.392Z,4.90
2023-03-01T09:45:04.227Z,4.53
2023-03-01T09:47:37.196Z,4.15
2023-03-01T09:50:17.951Z,4.32
2023-03-01T09:53:14.096Z,3.95
2023-03-01T09:55:50.489Z,4.00
2023-03-01T09:58:46.271Z,4.10
2023-03-01T10:01:33.886Z,3.92
2023-03-01T10:04:48.181Z,3.70
2023-03-01T10:07:24.139Z,3.43
2023-03-01T10:09:50.997Z,3.45
2023-03-01T10:12:35.914Z,4.07
2023-03-01T10:15:15.334Z,3.50
2023-03-01T10:17:52.135Z,4.18
2023-03-01T10:20:22.764Z,3.40
2023-03-01T10:22:53.596Z,3.88
2023-03-01T10:25:54.050Z,3.65
2023-03-01T10:28:57.094Z,3.83
2023-03-01T10:31:30.383Z,3.47
2023-03-01T10:33:58.148Z,4.03
2023-03-01T10:36:25.292Z,4.38
2023-03-01T10:38:57.955Z,3.78
2023-03-01T10:41:27.771Z,3.60
2023-03-01T10:43:58.764Z,3.58
2023-03-01T10:46:38.288Z,3.65
2023-03-01T10:49:24.071Z,3.80
2023-03-01T10:51:53.749Z,3.50
2023-03-01T10:54:33.406Z,3.55
2023-03-01T10:57:04.063Z,3.60
2023-03-01T10:59:40.203Z,3.53
2023-03-01T11:02:30.131Z,3.03
2023-03-01T11:05:16.054Z,3.40
2023-03-01T11:07:59.480Z,2.50
2023-03-01T11:10:37.565Z,2.93
2023-03-01T11:13:22.231Z,2.80
2023-03-01T11:16:11.163Z,2.55
2023-03-01T11:18:47.746Z,2.63
2023-03-01T11:21:16.647Z,2.83
2023-03-01T11:23:47.526Z,2.40
2023-03-01T11:26:16.504Z,2.60
2023-03-01T11:28:47.741Z,2.47
2023-03-01T11:31:17.834Z,1.77
2023-03-01T11:34:11.139Z,2.03
2023-03-01T11:37:00.769Z,1.95
2023-03-01T11:39:50.303Z,1.77
2023-03-01T11:42:25.978Z,2.33
2023-03-01T11:44:59.197Z,2.15
2023-03-01T11:47:53.010Z,2.08
2023-03-01T11:50:46.867Z,2.10
2023-03-01T11:53:27.276Z,1.88
2023-03-01T11:56:05.490Z,1.92
2023-03-01T11:59:12.740Z,2.90
2023-03-01T12:02:18.316Z,2.03
2023-03-01T12:05:18.270Z,1.67
2023-03-01T12:08:15.780Z,1.63
2023-03-01T12:11:28.224Z,1.95
2023-03-01T12:14:25.414Z,1.70
2023-03-01T12:17:14.643Z,1.92
2023-03-01T12:20:23.958Z,1.80
2023-03-01T12:23:20.778Z,1.60
2023-03-01T12:26:29.866Z,1.90
2023-03-01T12:29:24.977Z,1.90
2023-03-01T12:32:17.633Z,1.75
2023-03-01T12:35:14.629Z,1.60
2023-03-01T12:37:59.782Z,1.88
2023-03-01T12:41:02.754Z,1.75
2023-03-01T12:44:04.221Z,2.10
2023-03-01T12:46:52.673Z,1.65
2023-03-01T12:49:38.927Z,1.73
2023-03-01T12:52:40.382Z,1.83
2023-03-01T12:55:20.302Z,1.90
2023-03-01T12:58:34.164Z,2.00
2023-03-01T13:01:52.998Z,2.25
2023-03-01T13:05:07.576Z,1.98
2023-03-01T13:08:06.530Z,1.60
2023-03-01T13:10:54.978Z,1.92
2023-03-01T13:13:28.856Z,1.98
2023-03-01T13:15:56.908Z,1.52
2023-03-01T13:18:24.281Z,1.65
2023-03-01T13:20:55.414Z,2.30
2023-03-01T13:23:22.418Z,2.25
2023-03-01T13:25:58.580Z,1.90
2023-03-01T13:28:46.034Z,2.15
2023-03-01T13:31:21.938Z,2.03
2023-03-01T13:33:52.760Z,2.30
2023-03-01T13:36:28.609Z,2.13
2023-03-01T13:39:00.743Z,2.03
2023-03-01T13:41:39.708Z,1.75
2023-03-01T13:44:39.686Z,1.70
2023-03-01T13:47:14.847Z,2.08
2023-03-01T13:49:52.810Z,2.38
2023-03-01T13:53:00.116Z,1.80
2023-03-01T13:55:46.465Z,2.17
2023-03-01T13:58:27.761Z,2.10
2023-03-01T14:01:21.150Z,2.00
2023-03-01T14:03:47.960Z,2.20
2023-03-01T14:06:27.032Z,1.98
2023-03-01T14:09:19.567Z,2.15
2023-03-01T14:12:05.696Z,2.00
2023-03-01T14:15:17.518Z,1.88
2023-03-01T14:18:14.932Z,1.85
2023-03-01T14:20:52.017Z,2.30
2023-03-01T14:23:23.073Z,2.42
2023-03-01T14:25:58.580Z,2.08
2023-03-01T14:28:29.895Z,1.90
2023-03-01T14:31:00.015Z,1.98
2023-03-01T14:33:38.159Z,2.17
2023-03-01T14:36:13.157Z,2.10
2023-03-01T14:38:47.768Z,1.88
2023-03-01T14:41:23.423Z,1.63
2023-03-01T14:44:02.080Z,1.95
2023-03-01T14:46:41.413Z,2.00
2023-03-01T14:49:18.055Z,1.90
2023-03-01T14:51:57.331Z,2.00
2023-03-01T14:54:41.734Z,1.88
2023-03-01T14:57:18.644Z,2.08
2023-03-01T14:59:46.423Z,1.80
2023-03-01T15:02:20.539Z,1.85
2023-03-01T15:04:59.244Z,1.88
2023-03-01T15:07:33.250Z,2.05
2023-03-01T15:12:30.306Z,2.05
2023-03-01T15:15:04.368Z,2.05
2023-03-01T15:17:39.568Z,2.40
2023-03-01T15:20:18.605Z,2.78
2023-03-01T15:22:49.660Z,1.98
2023-03-01T15:25:23.980Z,2.03
2023-03-01T15:27:53.653Z,1.77
2023-03-01T15:30:38.426Z,1.70
2023-03-01T15:33:31.026Z,2.13
2023-03-01T15:36:32.909Z,1.52
2023-03-01T15:39:02.606Z,1.95
2023-03-01T15:41:38.709Z,2.53
2023-03-01T15:44:42.682Z,2.97
2023-03-01T15:47:31.586Z,2.13
2023-03-01T15:50:00.954Z,2.30
2023-03-01T15:52:43.528Z,2.13
2023-03-01T15:55:24.016Z,1.83
2023-03-01T15:58:00.034Z,2.00
2023-03-01T16:00:27.424Z,2.10
2023-03-01T16:02:54.196Z,2.17
2023-03-01T16:05:31.983Z,2.08
2023-03-01T16:07:59.422Z,2.45
2023-03-01T16:10:26.664Z,1.98
2023-03-01T16:12:53.701Z,2.20
2023-03-01T16:15:23.678Z,2.47
2023-03-01T16:17:50.677Z,2.40
2023-03-01T16:20:28.038Z,2.58
2023-03-01T16:22:56.099Z,2.75
2023-03-01T16:25:22.888Z,3.10
2023-03-01T16:27:51.753Z,2.50
2023-03-01T16:30:22.974Z,2.78
2023-03-01T16:32:51.103Z,3.05
2023-03-01T16:35:21.530Z,3.10
2023-03-01T16:37:49.513Z,2.95
2023-03-01T16:40:29.166Z,2.83
2023-03-01T16:43:00.437Z,3.10
2023-03-01T16:45:33.367Z,2.58
2023-03-01T16:48:00.135Z,2.55
2023-03-01T16:50:26.951Z,2.38
2023-03-01T16:52:53.707Z,2.15
2023-03-01T16:55:20.465Z,1.88
2023-03-01T16:57:47.316Z,2.10
2023-03-01T17:00:14.901Z,2.10
2023-03-01T17:02:42.676Z,2.25
2023-03-01T17:05:12.747Z,2.50
2023-03-01T17:07:40.353Z,2.08
2023-03-01T17:10:12.014Z,2.40
2023-03-01T17:12:39.528Z,2.25
2023-03-01T17:15:07.675Z,2.50
2023-03-01T17:17:35.614Z,3.05
2023-03-01T17:20:04.858Z,2.80
2023-03-01T17:22:31.779Z,2.58
2023-03-01T17:24:58.644Z,2.70
2023-03-01T17:27:25.646Z,2.83
2023-03-01T17:29:52.572Z,3.00
2023-03-01T17:32:19.481Z,3.63
2023-03-01T17:34:46.687Z,3.33
2023-03-01T17:37:13.459Z,3.92
2023-03-01T17:39:40.216Z,3.72
2023-03-01T17:42:07.467Z,5.72
2023-03-01T17:44:34.897Z,4.28
2023-03-01T17:47:03.961Z,4.50
2023-03-01T17:49:31.516Z,3.72
2023-03-01T17:51:59.058Z,3.72
2023-03-01T17:54:26.364Z,4.35
2023-03-01T17:56:55.782Z,3.92
2023-03-01T17:59:22.724Z,3.83
2023-03-01T18:01:49.779Z,4.55
2023-03-01T18:04:18.430Z,3.80
2023-03-01T18:06:45.285Z,4.00
2023-03-01T18:09:12.060Z,4.40
2023-03-01T18:11:39.536Z,4.20
2023-03-01T18:14:06.309Z,4.35
2023-03-01T18:16:34.254Z,4.15
2023-03-01T18:19:02.375Z,4.35
2023-03-01T18:21:34.365Z,4.45
2023-03-01T18:24:01.607Z,4.00
2023-03-01T18:26:29.784Z,4.57
2023-03-01T18:28:58.374Z,5.45
2023-03-01T18:31:25.868Z,5.60
2023-03-01T18:33:55.255Z,5.30
2023-03-01T18:36:35.654Z,5.40
2023-03-01T18:39:06.449Z,5.38
2023-03-01T18:41:34.478Z,5.28
2023-03-01T18:44:03.678Z,5.88
2023-03-01T18:46:31.458Z,6.78
2023-03-01T18:48:59.104Z,6.78
2023-03-01T18:51:28.342Z,7.85
2023-03-01T18:53:58.564Z,7.40
2023-03-01T18:56:26.603Z,6.75
2023-03-01T18:58:53.368Z,7.60
2023-03-01T19:01:25.458Z,7.57
2023-03-01T19:03:54.779Z,7.40
2023-03-01T19:06:22.181Z,7.60
2023-03-01T19:08:50.093Z,7.47
2023-03-01T19:11:17.706Z,7.72
2023-03-01T19:13:47.242Z,7.25
2023-03-01T19:16:18.012Z,7.57
2023-03-01T19:18:50.379Z,7.45
2023-03-01T19:21:25.135Z,7.82
2023-03-01T19:23:52.816Z,7.97
2023-03-01T19:26:23.684Z,8.30
2023-03-01T19:28:51.253Z,8.35
2023-03-01T19:31:24.189Z,9.35
2023-03-01T19:33:52.907Z,8.45
2023-03-01T19:36:21.817Z,7.82
2023-03-01T19:38:49.044Z,9.07
2023-03-01T19:41:18.143Z,8.98
2023-03-01T19:43:47.156Z,7.80
2023-03-01T19:46:16.353Z,7.47
2023-03-01T19:48:44.707Z,7.32
2023-03-01T19:51:12.413Z,7.68
2023-03-01T19:53:40.982Z,8.05
2023-03-01T19:56:08.840Z,7.70
2023-03-01T19:58:36.358Z,8.20
2023-03-01T20:01:03.197Z,8.43
2023-03-01T20:03:36.356Z,6.97
2023-03-01T20:06:15.872Z,7.50
2023-03-01T20:08:44.569Z,7.32
2023-03-01T20:11:13.852Z,7.35
2023-03-01T20:13:41.025Z,7.47
2023-03-01T20:16:09.181Z,7.95
2023-03-01T20:18:36.644Z,7.70
2023-03-01T20:21:07.163Z,7.88
2023-03-01T20:23:36.349Z,7.82
2023-03-01T20:26:15.006Z,7.45
2023-03-01T20:28:43.057Z,7.65
2023-03-01T20:31:13.141Z,8.25
2023-03-01T20:33:40.768Z,7.50
2023-03-01T20:36:10.553Z,7.95
2023-03-01T20:38:38.262Z,8.27
2023-03-01T20:41:11.601Z,8.30
2023-03-01T20:43:38.946Z,8.18
2023-03-01T20:46:13.545Z,8.90
2023-03-01T20:48:45.035Z,9.05
2023-03-01T20:51:13.732Z,8.85
2023-03-01T20:53:40.848Z,8.20
2023-03-01T20:56:14.965Z,9.10
2023-03-01T20:58:43.103Z,8.93
2023-03-01T21:01:15.360Z,8.63
2023-03-01T21:03:42.766Z,8.20
2023-03-01T21:06:09.632Z,8.35
2023-03-01T21:08:37.967Z,8.73
2023-03-01T21:11:07.351Z,8.70
2023-03-01T21:13:36.099Z,8.80
2023-03-01T21:16:13.214Z,9.18
2023-03-01T21:18:40.808Z,8.70
2023-03-01T21:21:14.567Z,8.27
2023-03-01T21:23:43.731Z,8.55
2023-03-01T21:26:20.797Z,8.25
2023-03-01T21:28:50.173Z,8.30
2023-03-01T21:31:23.771Z,8.85
2023-03-01T21:33:54.170Z,8.10
2023-03-01T21:36:23.237Z,8.55
2023-03-01T21:38:51.937Z,8.38
2023-03-01T21:41:23.757Z,8.40
2023-03-01T21:43:53.051Z,8.70
2023-03-01T21:46:23.731Z,7.85
2023-03-01T21:48:52.732Z,8.13
2023-03-01T21:51:22.451Z,7.80
2023-03-01T21:53:50.640Z,8.30
2023-03-01T21:56:27.676Z,7.82
2023-03-01T21:58:55.554Z,8.25
2023-03-01T22:01:26.172Z,8.80
2023-03-01T22:03:54.730Z,8.45
2023-03-01T22:06:38.075Z,9.32
2023-03-01T22:09:15.417Z,8.20
2023-03-01T22:11:55.509Z,8.65
2023-03-01T22:14:22.372Z,8.82
2023-03-01T22:16:51.424Z,9.73
2023-03-01T22:19:18.888Z,8.95
2023-03-01T22:21:49.816Z,10.13
2023-03-01T22:24:22.134Z,8.82
2023-03-01T22:26:52.033Z,8.98
2023-03-01T22:29:29.106Z,9.50
2023-03-01T22:31:57.385Z,8.77
2023-03-01T22:34:24.814Z,8.98
2023-03-01T22:36:52.316Z,8.73
2023-03-01T22:39:21.054Z,8.73
2023-03-01T22:41:50.109Z,9.15
2023-03-01T22:44:21.541Z,7.78
2023-03-01T22:46:48.436Z,8.88
2023-03-01T22:49:17.054Z,9.38
2023-03-01T22:51:47.544Z,8.95
2023-03-01T22:54:15.628Z,8.55
2023-03-01T22:56:43.178Z,8.98
2023-03-01T22:59:14.257Z,9.20
2023-03-01T23:01:46.496Z,8.90
2023-03-01T23:04:15.012Z,8.57
2023-03-01T23:06:51.904Z,8.50
2023-03-01T23:09:22.427Z,9.45
2023-03-01T23:11:51.295Z,8.85
2023-03-01T23:14:19.412Z,9.18
2023-03-01T23:16:46.263Z,9.73
2023-03-01T23:19:13.214Z,9.68
2023-03-01T23:21:44.262Z,9.68
2023-03-01T23:24:11.491Z,9.88
2023-03-01T23:26:40.328Z,9.80
2023-03-01T23:29:08.303Z,9.80
2023-03-01T23:31:35.866Z,9.80
2023-03-01T23:34:02.970Z,9.40
2023-03-01T23:36:34.038Z,9.27
2023-03-01T23:39:05.539Z,9.48
2023-03-01T23:41:35.031Z,8.88
2023-03-01T23:44:04.154Z,8.73
2023-03-01T23:46:35.445Z,9.32
2023-03-01T23:49:03.038Z,8.80
2023-03-01T23:51:29.765Z,10.13
2023-03-01T23:54:00.939Z,9.32
2023-03-01T23:56:33.450Z,8.90
2023-03-01T23:59:04.018Z,9.35
